createdAt,value
2023-04-15T00:01:46.095Z,99922.81
2023-04-15T00:04:12.478Z,99928.31
2023-04-15T00:06:38.889Z,99927.09
2023-04-15T00:09:05.787Z,99920.56
2023-04-15T00:11:32.109Z,99924.25
2023-04-15T00:13:58.419Z,99920.19
2023-04-15T00:16:25.040Z,99920.25
2023-04-15T00:18:51.361Z,99921.31
2023-04-15T00:21:17.663Z,99916.94
2023-04-15T00:23:43.976Z,99908.81
2023-04-15T00:26:10.283Z,99918.06
2023-04-15T00:28:36.595Z,99909.94
2023-04-15T00:31:02.974Z,99915.91
2023-04-15T00:33:29.313Z,99914.84
2023-04-15T00:35:55.611Z,99905.75
2023-04-15T00:38:21.899Z,99906.88
2023-04-15T00:40:48.211Z,99910.06
2023-04-15T00:43:14.542Z,99903.09
2023-04-15T00:45:40.914Z,99902.19
2023-04-15T00:48:07.458Z,99910.41
2023-04-15T00:50:33.771Z,99908.28
2023-04-15T00:53:00.143Z,99911.19
2023-04-15T00:55:26.460Z,99914.22
2023-04-15T00:57:52.886Z,99914.91
2023-04-15T01:00:20.527Z,99913.81
2023-04-15T01:02:47.036Z,99915.97
2023-04-15T01:05:13.573Z,99913.56
2023-04-15T01:07:39.881Z,99908.75
2023-04-15T01:10:06.984Z,99910.13
2023-04-15T01:12:33.528Z,99911.25
2023-04-15T01:15:00.133Z,99908.81
2023-04-15T01:17:26.517Z,99910.88
2023-04-15T01:19:52.966Z,99910.22
2023-04-15T01:22:19.268Z,99916.06
2023-04-15T01:25:01.302Z,99905.44
2023-04-15T01:27:27.938Z,99906.66
2023-04-15T01:29:54.260Z,99909.16
2023-04-15T01:32:20.559Z,99904.22
2023-04-15T01:34:46.889Z,99898.41
2023-04-15T01:37:13.402Z,99906.38
2023-04-15T01:39:39.741Z,99904.19
2023-04-15T01:42:06.067Z,99915.59
2023-04-15T01:44:32.373Z,99906.25
2023-04-15T01:46:58.760Z,99904.78
2023-04-15T01:49:25.107Z,99908.59
2023-04-15T01:51:51.406Z,99908.59
2023-04-15T01:54:17.776Z,99905.91
2023-04-15T01:56:44.077Z,99911.25
2023-04-15T01:59:10.402Z,99913.41
2023-04-15T02:01:36.745Z,99901.03
2023-04-15T02:04:03.163Z,99897.31
2023-04-15T02:06:29.540Z,99894.34
2023-04-15T02:08:55.856Z,99904.31
2023-04-15T02:11:22.164Z,99896.19
2023-04-15T02:13:48.481Z,99894.09
2023-04-15T02:16:18.831Z,99896.22
2023-04-15T02:18:46.263Z,99900.06
2023-04-15T02:21:12.972Z,99910.53
2023-04-15T02:23:39.270Z,99903.38
2023-04-15T02:26:05.577Z,99902.59
2023-04-15T02:28:31.867Z,99907.13
2023-04-15T02:30:58.152Z,99909.78
2023-04-15T02:33:24.480Z,99914.09
2023-04-15T02:35:50.797Z,99913.34
2023-04-15T02:38:17.118Z,99910.34
2023-04-15T02:40:43.604Z,99912.50
2023-04-15T02:43:09.900Z,99914.69
2023-04-15T02:45:36.309Z,99915.78
2023-04-15T02:48:02.688Z,99924.38
2023-04-15T02:50:29.025Z,99916.91
2023-04-15T02:52:55.338Z,99915.59
2023-04-15T02:55:21.754Z,99914.25
2023-04-15T02:57:48.077Z,99914.81
2023-04-15T03:00:14.533Z,99910.47
2023-04-15T03:02:40.995Z,99918.56
2023-04-15T03:05:11.764Z,99917.50
2023-04-15T03:07:38.072Z,99921.53
2023-04-15T03:10:04.753Z,99916.41
2023-04-15T03:12:31.089Z,99911.00
2023-04-15T03:14:57.422Z,99913.94
2023-04-15T03:17:23.796Z,99913.72
2023-04-15T03:19:50.224Z,99913.16
2023-04-15T03:22:16.520Z,99916.38
2023-04-15T03:24:42.847Z,99907.50
2023-04-15T03:27:09.151Z,99904.50
2023-04-15T03:29:35.515Z,99905.09
2023-04-15T03:32:01.844Z,99899.19
2023-04-15T03:34:28.160Z,99897.31
2023-04-15T03:36:54.452Z,99901.84
2023-04-15T03:39:20.764Z,99901.34
2023-04-15T03:41:47.077Z,99897.56
2023-04-15T03:44:13.407Z,99908.66
2023-04-15T03:46:39.735Z,99920.25
2023-04-15T03:49:07.164Z,99932.69
2023-04-15T03:51:33.624Z,99927.78
2023-04-15T03:54:00.104Z,99927.84
2023-04-15T03:56:26.454Z,99924.69
2023-04-15T03:58:52.794Z,99923.59
2023-04-15T04:01:19.386Z,99939.75
2023-04-15T04:03:45.837Z,99934.34
2023-04-15T04:06:12.314Z,99932.72
2023-04-15T04:08:38.628Z,99936.50
2023-04-15T04:11:05.148Z,99925.50
2023-04-15T04:13:31.436Z,99926.34
2023-04-15T04:15:57.825Z,99924.16
2023-04-15T04:18:24.192Z,99924.72
2023-04-15T04:20:50.585Z,99926.88
2023-04-15T04:23:16.945Z,99939.88
2023-04-15T04:25:43.245Z,99937.16
2023-04-15T04:28:09.669Z,99930.44
2023-04-15T04:30:36.136Z,99931.25
2023-04-15T04:33:02.563Z,99939.13
2023-04-15T04:35:28.925Z,99937.78
2023-04-15T04:37:55.231Z,99941.00
2023-04-15T04:40:21.544Z,99933.72
2023-04-15T04:42:47.944Z,99929.94
2023-04-15T04:45:14.266Z,99931.75
2023-04-15T04:47:40.593Z,99933.28
2023-04-15T04:50:07.624Z,99935.22
2023-04-15T04:52:33.949Z,99938.72
2023-04-15T04:55:00.238Z,99934.44
2023-04-15T04:57:26.542Z,99937.06
2023-04-15T04:59:52.920Z,99939.22
2023-04-15T05:02:19.318Z,99941.34
2023-04-15T05:04:45.736Z,99940.56
2023-04-15T05:07:12.044Z,99946.47
2023-04-15T05:09:38.344Z,99946.19
2023-04-15T05:12:04.927Z,99948.28
2023-04-15T05:14:31.236Z,99942.91
2023-04-15T05:16:57.674Z,99948.81
2023-04-15T05:19:23.970Z,99949.09
2023-04-15T05:21:50.363Z,99951.53
2023-04-15T05:24:16.693Z,99952.03
2023-04-15T05:26:43.041Z,99955.00
2023-04-15T05:29:09.441Z,99949.28
2023-04-15T05:31:36.544Z,99952.78
2023-04-15T05:34:02.883Z,99952.00
2023-04-15T05:36:29.196Z,99952.78
2023-04-15T05:38:55.573Z,99950.53
2023-04-15T05:41:22.000Z,99954.09
2023-04-15T05:43:48.317Z,99954.59
2023-04-15T05:46:14.718Z,99954.38
2023-04-15T05:48:41.074Z,99961.16
2023-04-15T05:51:07.369Z,99963.81
2023-04-15T05:53:33.691Z,99960.53
2023-04-15T05:56:00.007Z,99968.88
2023-04-15T05:58:26.334Z,99966.47
2023-04-15T06:00:52.919Z,99969.13
2023-04-15T06:03:19.389Z,99968.31
2023-04-15T06:05:45.761Z,99975.03
2023-04-15T06:08:12.088Z,99968.59
2023-04-15T06:10:38.483Z,99972.94
2023-04-15T06:13:04.937Z,99974.34
2023-04-15T06:15:31.587Z,99987.50
2023-04-15T06:17:57.935Z,99989.63
2023-04-15T06:20:24.306Z,99992.78
2023-04-15T06:22:50.739Z,99994.94
2023-04-15T06:25:17.072Z,99993.31
2023-04-15T06:27:43.410Z,99998.16
2023-04-15T06:30:10.180Z,99993.19
2023-04-15T06:32:36.596Z,99993.94
2023-04-15T06:35:03.032Z,99997.72
2023-04-15T06:37:29.376Z,100001.50
2023-04-15T06:39:55.696Z,99995.66
2023-04-15T06:42:22.758Z,99996.78
2023-04-15T06:44:49.070Z,100002.19
2023-04-15T06:47:15.413Z,99998.97
2023-04-15T06:49:41.821Z,100003.31
2023-04-15T06:52:08.150Z,99998.75
2023-04-15T06:54:34.465Z,99996.84
2023-04-15T06:57:00.758Z,100002.72
2023-04-15T06:59:27.068Z,100005.97
2023-04-15T07:01:53.600Z,100004.13
2023-04-15T07:04:20.180Z,100003.84
2023-04-15T07:06:46.542Z,99994.66
2023-04-15T07:09:12.875Z,100001.94
2023-04-15T07:11:39.173Z,100003.28
2023-04-15T07:14:05.490Z,100002.16
2023-04-15T07:16:31.818Z,100003.22
2023-04-15T07:18:58.169Z,100006.66
2023-04-15T07:21:25.848Z,100010.72
2023-04-15T07:23:52.185Z,100006.41
2023-04-15T07:26:18.525Z,100005.91
2023-04-15T07:28:44.852Z,100010.72
2023-04-15T07:31:11.354Z,100013.47
2023-04-15T07:33:37.758Z,100009.16
2023-04-15T07:36:04.289Z,100015.66
2023-04-15T07:38:30.594Z,100014.53
2023-04-15T07:40:56.991Z,100012.84
2023-04-15T07:43:23.503Z,100017.69
2023-04-15T07:45:49.869Z,100025.22
2023-04-15T07:48:16.261Z,100026.28
2023-04-15T07:50:42.703Z,100022.50
2023-04-15T07:53:08.995Z,100021.94
2023-04-15T07:55:35.327Z,100026.72
2023-04-15T07:58:01.626Z,100026.25
2023-04-15T08:00:27.929Z,100027.78
2023-04-15T08:02:54.402Z,100022.16
2023-04-15T08:05:21.045Z,100025.94
2023-04-15T08:07:47.442Z,100029.47
2023-04-15T08:10:14.438Z,100029.94
2023-04-15T08:12:40.773Z,100034.47
2023-04-15T08:15:07.770Z,100031.19
2023-04-15T08:17:34.088Z,100030.41
2023-04-15T08:20:00.455Z,100042.28
2023-04-15T08:22:26.765Z,100046.31
2023-04-15T08:24:53.068Z,100046.44
2023-04-15T08:27:19.410Z,100046.44
2023-04-15T08:29:45.778Z,100044.53
2023-04-15T08:32:12.278Z,100042.94
2023-04-15T08:34:38.583Z,100044.25
2023-04-15T08:37:04.901Z,100043.50
2023-04-15T08:39:31.197Z,100041.56
2023-04-15T08:42:02.580Z,100039.59
2023-04-15T08:44:34.940Z,100048.94
2023-04-15T08:47:02.172Z,100047.38
2023-04-15T08:49:29.372Z,100042.25
2023-04-15T08:51:59.482Z,100043.88
2023-04-15T08:54:26.927Z,100036.53
2023-04-15T08:56:53.483Z,100041.91
2023-04-15T08:59:21.560Z,100034.53
2023-04-15T09:01:50.116Z,100039.38
2023-04-15T09:04:17.293Z,100043.13
2023-04-15T09:06:43.720Z,100044.97
2023-04-15T09:09:10.206Z,100041.41
2023-04-15T09:11:36.571Z,100047.16
2023-04-15T09:14:02.858Z,100049.94
2023-04-15T09:16:29.244Z,100050.47
2023-04-15T09:18:55.585Z,100056.44
2023-04-15T09:21:21.956Z,100049.44
2023-04-15T09:23:55.121Z,100052.16
2023-04-15T09:26:34.489Z,100050.91
2023-04-15T09:29:05.738Z,100054.66
2023-04-15T09:31:32.100Z,100054.00
2023-04-15T09:33:58.692Z,100055.06
2023-04-15T09:36:25.290Z,100052.44
2023-04-15T09:38:59.293Z,100066.69
2023-04-15T09:41:27.819Z,100067.50
2023-04-15T09:43:54.133Z,100066.69
2023-04-15T09:46:20.452Z,100072.91
2023-04-15T09:48:47.202Z,100068.03
2023-04-15T09:51:13.541Z,100068.25
2023-04-15T09:53:39.860Z,100073.72
2023-04-15T09:56:06.642Z,100074.00
2023-04-15T09:58:34.356Z,100074.78
2023-04-15T10:01:02.925Z,100072.06
2023-04-15T10:03:31.550Z,100082.53
2023-04-15T10:06:00.736Z,100083.28
2023-04-15T10:08:29.302Z,100082.28
2023-04-15T10:10:55.604Z,100083.59
2023-04-15T10:13:24.678Z,100081.66
2023-04-15T10:15:59.164Z,100075.41
2023-04-15T10:18:27.664Z,100070.59
2023-04-15T10:20:55.039Z,100073.81
2023-04-15T10:23:23.170Z,100082.72
2023-04-15T10:25:52.690Z,100083.47
2023-04-15T10:28:20.417Z,100087.03
2023-04-15T10:30:47.960Z,100083.00
2023-04-15T10:33:15.359Z,100085.41
2023-04-15T10:35:42.466Z,100084.84
2023-04-15T10:38:35.855Z,100087.09
2023-04-15T10:41:21.028Z,100084.34
2023-04-15T10:44:01.860Z,100096.78
2023-04-15T10:46:34.359Z,100100.03
2023-04-15T10:49:07.582Z,100106.44
2023-04-15T10:51:33.987Z,100097.78
2023-04-15T10:54:00.356Z,100095.56
2023-04-15T10:56:28.876Z,100102.63
2023-04-15T10:58:55.178Z,100109.09
2023-04-15T11:01:22.178Z,100098.31
2023-04-15T11:03:49.024Z,100102.34
2023-04-15T11:06:15.489Z,100107.75
2023-04-15T11:08:58.018Z,100108.78
2023-04-15T11:12:02.573Z,100103.53
2023-04-15T11:14:28.921Z,100103.00
2023-04-15T11:16:55.284Z,100101.94
2023-04-15T11:19:21.654Z,100116.03
2023-04-15T11:21:48.185Z,100110.06
2023-04-15T11:24:24.616Z,100116.00
2023-04-15T11:26:51.319Z,100105.50
2023-04-15T11:29:18.276Z,100113.88
2023-04-15T11:31:47.586Z,100116.50
2023-04-15T11:34:22.825Z,100127.31
2023-04-15T11:36:49.135Z,100124.00
2023-04-15T11:39:15.685Z,100127.88
2023-04-15T11:41:42.078Z,100127.03
2023-04-15T11:44:18.512Z,100127.81
2023-04-15T11:46:45.656Z,100130.00
2023-04-15T11:49:12.009Z,100132.41
2023-04-15T11:51:38.376Z,100141.34
2023-04-15T11:54:04.889Z,100140.78
2023-04-15T11:56:31.474Z,100139.50
2023-04-15T11:58:59.037Z,100145.16
2023-04-15T12:01:39.008Z,100139.19
2023-04-15T12:04:16.254Z,100156.41
2023-04-15T12:06:42.768Z,100148.09
2023-04-15T12:09:13.424Z,100149.97
2023-04-15T12:11:42.930Z,100162.41
2023-04-15T12:14:29.282Z,100155.38
2023-04-15T12:17:04.568Z,100162.88
2023-04-15T12:19:39.196Z,100158.31
2023-04-15T12:22:06.474Z,100169.66
2023-04-15T12:24:34.821Z,100172.13
2023-04-15T12:27:06.538Z,100167.22
2023-04-15T12:29:34.177Z,100169.94
2023-04-15T12:32:11.999Z,100178.50
2023-04-15T12:34:52.955Z,100182.03
2023-04-15T12:37:19.647Z,100177.38
2023-04-15T12:39:47.972Z,100194.63
2023-04-15T12:42:15.461Z,100192.00
2023-04-15T12:44:42.001Z,100192.00
2023-04-15T12:47:09.363Z,100200.38
2023-04-15T12:49:36.015Z,100202.81
2023-04-15T12:52:03.557Z,100197.63
2023-04-15T12:54:30.890Z,100202.25
2023-04-15T12:56:58.111Z,100203.88
2023-04-15T12:59:24.756Z,100207.16
2023-04-15T13:01:51.874Z,100203.97
2023-04-15T13:04:19.722Z,100213.69
2023-04-15T13:06:46.325Z,100211.81
2023-04-15T13:09:12.692Z,100209.94
2023-04-15T13:11:39.010Z,100223.13
2023-04-15T13:14:07.694Z,100219.91
2023-04-15T13:16:35.386Z,100222.84
2023-04-15T13:19:03.230Z,100226.63
2023-04-15T13:21:30.162Z,100229.06
2023-04-15T13:23:56.478Z,100229.34
2023-04-15T13:26:22.776Z,100229.31
2023-04-15T13:28:49.201Z,100229.56
2023-04-15T13:31:15.541Z,100231.13
2023-04-15T13:33:41.861Z,100226.50
2023-04-15T13:36:08.439Z,100234.91
2023-04-15T13:38:34.755Z,100241.16
2023-04-15T13:41:01.073Z,100247.66
2023-04-15T13:43:27.375Z,100242.81
2023-04-15T13:45:53.729Z,100254.38
2023-04-15T13:48:20.091Z,100251.16
2023-04-15T13:50:46.403Z,100259.56
2023-04-15T13:53:12.965Z,100261.06
2023-04-15T13:55:40.520Z,100258.94
2023-04-15T13:58:07.897Z,100264.88
2023-04-15T14:00:34.268Z,100260.00
2023-04-15T14:03:00.785Z,100265.88
2023-04-15T14:05:27.390Z,100264.59
2023-04-15T14:07:53.896Z,100265.97
2023-04-15T14:10:20.397Z,100269.50
2023-04-15T14:12:46.735Z,100267.34
2023-04-15T14:15:13.031Z,100274.13
2023-04-15T14:17:39.434Z,100280.31
2023-04-15T14:20:07.872Z,100280.88
2023-04-15T14:22:34.202Z,100289.03
2023-04-15T14:25:00.522Z,100287.09
2023-04-15T14:27:26.881Z,100284.59
2023-04-15T14:29:53.439Z,100295.53
2023-04-15T14:32:20.177Z,100291.75
2023-04-15T14:34:46.529Z,100290.22
2023-04-15T14:37:12.847Z,100298.06
2023-04-15T14:39:39.187Z,100292.44
2023-04-15T14:42:05.667Z,100298.91
2023-04-15T14:47:03.255Z,100294.03
2023-04-15T14:49:29.616Z,100304.88
2023-04-15T14:51:55.929Z,100310.81
2023-04-15T14:54:22.578Z,100319.44
2023-04-15T14:56:49.006Z,100319.38
2023-04-15T14:59:15.338Z,100326.06
2023-04-15T15:01:41.800Z,100323.06
2023-04-15T15:04:10.205Z,100328.22
2023-04-15T15:06:36.857Z,100329.63
2023-04-15T15:09:03.657Z,100337.47
2023-04-15T15:11:30.295Z,100331.19
2023-04-15T15:13:56.784Z,100339.56
2023-04-15T15:16:23.119Z,100344.31
2023-04-15T15:18:50.271Z,100350.00
2023-04-15T15:21:16.974Z,100351.34
2023-04-15T15:23:43.294Z,100355.94
2023-04-15T15:26:09.808Z,100356.50
2023-04-15T15:28:36.992Z,100360.06
2023-04-15T15:31:03.511Z,100369.25
2023-04-15T15:33:30.295Z,100369.50
2023-04-15T15:35:57.857Z,100363.84
2023-04-15T15:38:24.147Z,100368.94
2023-04-15T15:40:50.556Z,100373.81
2023-04-15T15:43:16.854Z,100373.25
2023-04-15T15:45:43.236Z,100381.81
2023-04-15T15:48:09.574Z,100382.56
2023-04-15T15:50:35.949Z,100389.84
2023-04-15T15:53:02.255Z,100392.06
2023-04-15T15:55:28.561Z,100388.84
2023-04-15T15:57:54.859Z,100395.22
2023-04-15T16:00:21.164Z,100396.84
2023-04-15T16:05:16.738Z,100406.09
2023-04-15T16:07:43.060Z,100413.31
2023-04-15T16:10:09.558Z,100412.28
2023-04-15T16:12:35.896Z,100416.28
2023-04-15T16:15:02.215Z,100409.47
2023-04-15T16:17:28.566Z,100415.94
2023-04-15T16:19:57.932Z,100409.63
2023-04-15T16:22:27.406Z,100415.91
2023-04-15T16:24:53.742Z,100413.22
2023-04-15T16:27:20.037Z,100413.44
2023-04-15T16:29:46.345Z,100415.63
2023-04-15T16:32:12.726Z,100414.59
2023-04-15T16:34:39.112Z,100423.84
2023-04-15T16:37:05.419Z,100432.53
2023-04-15T16:39:31.847Z,100436.69
2023-04-15T16:41:59.113Z,100433.69
2023-04-15T16:44:25.466Z,100444.69
2023-04-15T16:46:51.780Z,100440.34
2023-04-15T16:49:18.060Z,100448.22
2023-04-15T16:51:44.405Z,100450.97
2023-04-15T16:54:10.710Z,100456.31
2023-04-15T16:56:37.009Z,100448.78
2023-04-15T16:59:03.554Z,100452.81
2023-04-15T17:01:30.351Z,100453.66
2023-04-15T17:03:56.857Z,100457.94
2023-04-15T17:06:23.296Z,100453.91
2023-04-15T17:08:49.638Z,100461.22
2023-04-15T17:11:15.981Z,100466.66
2023-04-15T17:13:42.320Z,100466.59
2023-04-15T17:16:08.637Z,100469.28
2023-04-15T17:18:35.039Z,100477.97
2023-04-15T17:21:01.411Z,100474.72
2023-04-15T17:23:27.732Z,100480.69
2023-04-15T17:25:54.060Z,100480.38
2023-04-15T17:28:20.351Z,100472.50
2023-04-15T17:30:46.903Z,100478.41
2023-04-15T17:33:58.052Z,100473.81
2023-04-15T17:35:59.693Z,100481.19
2023-04-15T17:38:26.209Z,100478.78
2023-04-15T17:40:52.640Z,100488.25
2023-04-15T17:43:19.036Z,100489.34
2023-04-15T17:45:45.396Z,100499.38
2023-04-15T17:48:11.817Z,100495.91
2023-04-15T17:50:38.190Z,100501.81
2023-04-15T17:53:04.716Z,100502.91
2023-04-15T17:55:32.771Z,100511.00
2023-04-15T17:58:00.149Z,100506.41
2023-04-15T18:00:26.524Z,100515.56
2023-04-15T18:02:52.962Z,100513.19
2023-04-15T18:05:19.456Z,100510.72
2023-04-15T18:07:45.905Z,100520.97
2023-04-15T18:10:12.293Z,100522.59
2023-04-15T18:12:38.639Z,100527.72
2023-04-15T18:15:05.565Z,100523.97
2023-04-15T18:17:32.049Z,100525.13
2023-04-15T18:19:58.343Z,100539.44
2023-04-15T18:22:24.678Z,100536.47
2023-04-15T18:24:51.014Z,100543.53
2023-04-15T18:27:17.913Z,100541.91
2023-04-15T18:29:44.242Z,100553.22
2023-04-15T18:32:10.572Z,100557.28
2023-04-15T18:34:37.035Z,100558.19
2023-04-15T18:37:03.502Z,100554.34
2023-04-15T18:39:29.861Z,100572.75
2023-04-15T18:41:56.193Z,100571.94
2023-04-15T18:44:22.877Z,100573.88
2023-04-15T18:46:49.332Z,100577.09
2023-04-15T18:49:15.696Z,100582.53
2023-04-15T18:51:42.002Z,100584.19
2023-04-15T18:54:08.321Z,100582.06
2023-04-15T18:56:34.893Z,100597.50
2023-04-15T18:59:10.005Z,100592.31
2023-04-15T19:01:49.254Z,100597.47
2023-04-15T19:04:15.662Z,100597.19
2023-04-15T19:06:42.072Z,100606.38
2023-04-15T19:09:08.549Z,100602.56
2023-04-15T19:11:34.853Z,100606.88
2023-04-15T19:14:01.172Z,100608.53
2023-04-15T19:16:27.524Z,100611.75
2023-04-15T19:18:53.921Z,100618.22
2023-04-15T19:21:20.387Z,100622.53
2023-04-15T19:23:46.850Z,100617.38
2023-04-15T19:26:13.172Z,100616.34
2023-04-15T19:28:39.538Z,100627.97
2023-04-15T19:31:06.117Z,100621.81
2023-04-15T19:33:32.623Z,100631.28
2023-04-15T19:36:04.416Z,100638.53
2023-04-15T19:38:31.707Z,100633.44
2023-04-15T19:40:58.751Z,100643.16
2023-04-15T19:43:25.081Z,100646.94
2023-04-15T19:45:52.316Z,100645.53
2023-04-15T19:48:19.158Z,100644.19
2023-04-15T19:50:45.580Z,100655.00
2023-04-15T19:53:12.235Z,100652.31
2023-04-15T19:55:38.767Z,100651.75
2023-04-15T19:58:05.176Z,100658.81
2023-04-15T20:00:31.536Z,100650.13
2023-04-15T20:02:58.335Z,100657.16
2023-04-15T20:05:24.835Z,100650.38
2023-04-15T20:07:51.147Z,100660.91
2023-04-15T20:10:21.515Z,100654.19
2023-04-15T20:12:52.746Z,100655.00
2023-04-15T20:15:19.847Z,100651.22
2023-04-15T20:17:46.240Z,100659.84
2023-04-15T20:20:12.601Z,100654.69
2023-04-15T20:22:38.892Z,100653.31
2023-04-15T20:25:05.656Z,100663.31
2023-04-15T20:27:31.952Z,100648.97
2023-04-15T20:29:58.341Z,100663.03
2023-04-15T20:32:24.670Z,100663.03
2023-04-15T20:34:50.979Z,100657.38
2023-04-15T20:37:17.379Z,100660.34
2023-04-15T20:39:43.831Z,100661.19
2023-04-15T20:42:10.217Z,100663.59
2023-04-15T20:44:37.448Z,100662.00
2023-04-15T20:47:05.046Z,100663.66
2023-04-15T20:49:35.820Z,100662.78
2023-04-15T20:52:03.092Z,100667.41
2023-04-15T20:54:29.433Z,100672.81
2023-04-15T20:56:56.165Z,100672.00
2023-04-15T20:59:22.566Z,100676.59
2023-04-15T21:01:48.971Z,100675.53
2023-04-15T21:04:15.385Z,100678.19
2023-04-15T21:06:41.702Z,100683.59
2023-04-15T21:09:08.123Z,100681.19
2023-04-15T21:11:53.058Z,100676.59
2023-04-15T21:14:20.755Z,100686.34
2023-04-15T21:16:47.210Z,100676.59
2023-04-15T21:19:13.577Z,100684.97
2023-04-15T21:21:40.009Z,100693.91
2023-04-15T21:24:06.573Z,100692.81
2023-04-15T21:26:33.002Z,100690.88
2023-04-15T21:28:59.345Z,100682.75
2023-04-15T21:31:25.864Z,100696.78
2023-04-15T21:33:52.244Z,100700.63
2023-04-15T21:36:18.572Z,100695.44
2023-04-15T21:38:44.934Z,100701.66
2023-04-15T21:41:11.237Z,100703.06
2023-04-15T21:43:37.628Z,100713.31
2023-04-15T21:46:24.513Z,100708.47
2023-04-15T21:48:50.894Z,100712.25
2023-04-15T21:51:17.300Z,100716.53
2023-04-15T21:53:43.794Z,100720.84
2023-04-15T21:56:10.129Z,100725.72
2023-04-15T21:58:36.635Z,100720.31
2023-04-15T22:01:04.413Z,100723.28
2023-04-15T22:03:32.682Z,100731.16
2023-04-15T22:06:00.041Z,100736.59
2023-04-15T22:08:26.423Z,100729.84
2023-04-15T22:10:52.716Z,100735.00
2023-04-15T22:13:19.088Z,100740.91
2023-04-15T22:15:45.597Z,100743.06
2023-04-15T22:18:13.085Z,100749.31
2023-04-15T22:20:39.810Z,100751.50
2023-04-15T22:23:06.177Z,100750.94
2023-04-15T22:25:32.475Z,100750.16
2023-04-15T22:27:58.775Z,100752.84
2023-04-15T22:30:25.153Z,100758.00
2023-04-15T22:32:51.595Z,100756.66
2023-04-15T22:35:18.078Z,100752.81
2023-04-15T22:37:44.474Z,100755.56
2023-04-15T22:40:11.287Z,100759.38
2023-04-15T22:42:37.619Z,100758.81
2023-04-15T22:45:04.302Z,100758.84
2023-04-15T22:47:30.648Z,100765.00
2023-04-15T22:49:57.289Z,100768.28
2023-04-15T22:52:30.666Z,100777.47
2023-04-15T22:54:58.157Z,100768.84
2023-04-15T22:57:24.516Z,100775.88
2023-04-15T22:59:50.828Z,100780.47
2023-04-15T23:02:17.350Z,100782.63
2023-04-15T23:04:43.855Z,100786.38
2023-04-15T23:07:10.207Z,100785.06
2023-04-15T23:09:36.813Z,100791.81
2023-04-15T23:12:03.484Z,100789.13
2023-04-15T23:14:30.359Z,100789.63
2023-04-15T23:16:59.445Z,100792.88
2023-04-15T23:19:25.749Z,100798.84
2023-04-15T23:21:52.739Z,100799.09
2023-04-15T23:24:19.053Z,100793.94
2023-04-15T23:26:45.372Z,100801.25
2023-04-15T23:29:11.934Z,100806.69
2023-04-15T23:31:38.403Z,100799.09
2023-04-15T23:34:04.830Z,100801.81
2023-04-15T23:36:31.145Z,100794.50
2023-04-15T23:38:57.616Z,100797.19
2023-04-15T23:41:24.033Z,100805.31
2023-04-15T23:43:50.356Z,100796.09
2023-04-15T23:46:16.956Z,100804.50
2023-04-15T23:48:43.298Z,100805.31
2023-04-15T23:51:09.675Z,100796.94
2023-04-15T23:53:36.001Z,100806.41
2023-04-15T23:56:02.293Z,100798.56
2023-04-15T23:58:28.893Z,100805.56
